Terminal Aerodrome Forecast
Issued by NWS

Home | Current Version | Previous Version | Graphics & Text | Print | Product List | Glossary On
Versions: 1 2 3 4 5 6 7 8 9 10 11 12 13 14 15 16 17 18 19 20 21
000
FTUS43 KGRB 302300
TAFATW
TAF
KATW 302335Z 3100/3124 29009KT P6SM VCSH SCT035 OVC060
      TEMPO 3102/3104 -SHRA BKN035
     FM310400 32015G25KT P6SM BKN035 OVC050
      TEMPO 3105/3107 3SM -SHSN
     FM310700 34020G32KT 6SM -SHSN BKN025 OVC050
      TEMPO 3107/3111 2SM -SHSN BKN015
     FM311200 35026G36KT P6SM OVC035
     FM312000 36020G30KT P6SM SCT040=

USA.gov is the U.S. government's official web portal to all federal, state and local government web resources and services.